createdAt,value
2022-08-25T00:00:12.428Z,7.23
2022-08-25T00:02:40.314Z,6.83
2022-08-25T00:05:09.948Z,6.47
2022-08-25T00:07:37.956Z,6.70
2022-08-25T00:10:06.069Z,6.73
2022-08-25T00:12:33.675Z,6.63
2022-08-25T00:15:01.480Z,6.47
2022-08-25T00:17:29.024Z,6.27
2022-08-25T00:19:56.618Z,5.83
2022-08-25T00:22:25.651Z,6.40
2022-08-25T00:24:53.253Z,5.70
2022-08-25T00:27:21.680Z,6.00
2022-08-25T00:29:50.385Z,5.70
2022-08-25T00:32:18.289Z,5.77
2022-08-25T00:34:45.901Z,5.57
2022-08-25T00:37:13.500Z,5.80
2022-08-25T00:39:42.531Z,5.90
2022-08-25T00:42:11.768Z,5.97
2022-08-25T00:44:44.103Z,6.10
2022-08-25T00:47:11.755Z,6.27
2022-08-25T00:49:41.301Z,6.33
2022-08-25T00:52:10.199Z,5.70
2022-08-25T00:54:40.737Z,6.80
2022-08-25T00:57:11.404Z,6.20
2022-08-25T00:59:39.182Z,7.30
2022-08-25T01:02:10.259Z,7.10
2022-08-25T01:04:45.861Z,6.97
2022-08-25T01:07:18.545Z,7.37
2022-08-25T01:09:47.075Z,7.07
2022-08-25T01:12:16.102Z,7.50
2022-08-25T01:14:44.556Z,7.30
2022-08-25T01:17:12.268Z,7.10
2022-08-25T01:19:39.842Z,7.20
2022-08-25T01:22:10.525Z,7.10
2022-08-25T01:24:41.642Z,7.93
2022-08-25T01:27:09.766Z,7.77
2022-08-25T01:29:37.895Z,7.70
2022-08-25T01:32:07.346Z,7.10
2022-08-25T01:34:36.041Z,7.30
2022-08-25T01:37:04.419Z,7.50
2022-08-25T01:39:36.492Z,7.40
2022-08-25T01:42:10.013Z,7.07
2022-08-25T01:44:38.420Z,7.10
2022-08-25T01:47:06.641Z,7.37
2022-08-25T01:49:34.308Z,7.90
2022-08-25T01:52:02.890Z,7.77
2022-08-25T01:54:30.473Z,7.03
2022-08-25T01:57:00.310Z,7.50
2022-08-25T01:59:28.148Z,6.80
2022-08-25T02:02:04.781Z,7.17
2022-08-25T02:04:33.154Z,7.00
2022-08-25T02:07:02.043Z,7.10
2022-08-25T02:09:29.646Z,7.10
2022-08-25T02:11:57.451Z,7.93
2022-08-25T02:14:26.432Z,7.80
2022-08-25T02:16:54.670Z,8.23
2022-08-25T02:19:23.399Z,8.27
2022-08-25T02:21:51.507Z,7.67
2022-08-25T02:24:19.103Z,8.73
2022-08-25T02:26:46.651Z,8.87
2022-08-25T02:29:14.732Z,9.67
2022-08-25T02:31:44.016Z,9.37
2022-08-25T02:34:11.758Z,8.90
2022-08-25T02:36:39.422Z,9.13
2022-08-25T02:39:08.319Z,8.83
2022-08-25T02:41:36.004Z,8.23
2022-08-25T02:44:04.831Z,8.37
2022-08-25T02:46:32.534Z,8.80
2022-08-25T02:49:01.708Z,8.50
2022-08-25T02:51:30.461Z,9.43
2022-08-25T02:53:58.851Z,9.27
2022-08-25T02:56:26.800Z,9.57
2022-08-25T02:58:54.362Z,10.30
2022-08-25T03:01:22.507Z,10.27
2022-08-25T03:03:56.992Z,8.90
2022-08-25T03:06:27.852Z,8.67
2022-08-25T03:08:55.942Z,9.00
2022-08-25T03:11:24.909Z,9.43
2022-08-25T03:13:52.493Z,8.70
2022-08-25T03:16:20.640Z,8.33
2022-08-25T03:18:48.463Z,8.90
2022-08-25T03:21:16.688Z,8.30
2022-08-25T03:23:46.575Z,8.60
2022-08-25T03:26:31.715Z,8.13
2022-08-25T03:28:59.572Z,7.93
2022-08-25T03:31:28.060Z,8.40
2022-08-25T03:33:55.799Z,7.63
2022-08-25T03:36:23.399Z,8.13
2022-08-25T03:38:52.361Z,8.63
2022-08-25T03:41:21.340Z,8.60
2022-08-25T03:43:48.988Z,8.73
2022-08-25T03:46:20.491Z,7.63
2022-08-25T03:48:48.447Z,7.90
2022-08-25T03:51:20.272Z,8.03
2022-08-25T03:53:47.900Z,7.87
2022-08-25T03:56:16.860Z,8.00
2022-08-25T03:58:44.517Z,7.70
2022-08-25T04:01:12.337Z,7.67
2022-08-25T04:03:40.167Z,7.53
2022-08-25T04:06:08.772Z,8.37
2022-08-25T04:08:36.831Z,8.10
2022-08-25T04:11:08.072Z,8.20
2022-08-25T04:13:37.170Z,8.00
2022-08-25T04:16:05.520Z,7.67
2022-08-25T04:18:34.217Z,7.63
2022-08-25T04:21:05.521Z,8.03
2022-08-25T04:23:33.172Z,7.93
2022-08-25T04:26:01.391Z,7.70
2022-08-25T04:28:29.510Z,7.33
2022-08-25T04:30:58.876Z,7.50
2022-08-25T04:33:26.457Z,6.93
2022-08-25T04:35:54.344Z,7.00
2022-08-25T04:38:21.967Z,7.07
2022-08-25T04:40:56.551Z,7.53
2022-08-25T04:43:24.471Z,7.10
2022-08-25T04:45:52.379Z,8.10
2022-08-25T04:48:21.783Z,7.77
2022-08-25T04:50:49.623Z,7.73
2022-08-25T04:53:17.538Z,7.27
2022-08-25T04:55:46.143Z,7.80
2022-08-25T04:58:16.639Z,8.60
2022-08-25T05:00:44.540Z,7.90
2022-08-25T05:03:12.128Z,8.47
2022-08-25T05:05:41.068Z,8.73
2022-08-25T05:08:08.670Z,8.30
2022-08-25T05:10:39.997Z,9.07
2022-08-25T05:13:08.659Z,7.90
2022-08-25T05:15:51.653Z,7.30
2022-08-25T05:18:19.619Z,8.03
2022-08-25T05:20:48.600Z,8.23
2022-08-25T05:23:16.438Z,7.60
2022-08-25T05:25:44.380Z,7.90
2022-08-25T05:28:12.277Z,8.20
2022-08-25T05:30:40.108Z,8.57
2022-08-25T05:33:07.961Z,8.43
2022-08-25T05:35:35.759Z,8.10
2022-08-25T05:38:05.130Z,8.00
2022-08-25T05:40:33.109Z,8.60
2022-08-25T05:43:00.681Z,8.13
2022-08-25T05:45:28.347Z,7.77
2022-08-25T05:47:55.947Z,7.80
2022-08-25T05:50:23.514Z,7.77
2022-08-25T05:52:51.088Z,7.87
2022-08-25T05:55:20.296Z,8.30
2022-08-25T05:57:47.996Z,7.33
2022-08-25T06:00:15.719Z,7.40
2022-08-25T06:02:44.031Z,7.43
2022-08-25T06:05:13.752Z,7.07
2022-08-25T06:07:41.348Z,7.57
2022-08-25T06:10:11.504Z,7.50
2022-08-25T06:12:41.115Z,7.03
2022-08-25T06:15:12.077Z,7.47
2022-08-25T06:17:40.842Z,7.20
2022-08-25T06:20:09.923Z,6.90
2022-08-25T06:22:38.240Z,7.90
2022-08-25T06:25:06.279Z,7.67
2022-08-25T06:27:34.467Z,7.27
2022-08-25T06:30:04.801Z,7.23
2022-08-25T06:32:36.869Z,7.20
2022-08-25T06:35:04.812Z,6.97
2022-08-25T06:37:32.374Z,7.23
2022-08-25T06:40:00.050Z,6.57
2022-08-25T06:42:28.207Z,10.97
2022-08-25T06:44:55.787Z,6.67
2022-08-25T06:47:24.834Z,6.67
2022-08-25T06:49:52.435Z,7.13
2022-08-25T06:52:20.388Z,7.20
2022-08-25T06:54:49.130Z,7.10
2022-08-25T06:57:16.845Z,6.60
2022-08-25T06:59:44.435Z,7.87
2022-08-25T07:02:12.062Z,6.73
2022-08-25T07:04:41.130Z,7.27
2022-08-25T07:07:08.778Z,7.13
2022-08-25T07:09:39.174Z,6.87
2022-08-25T07:12:07.334Z,6.77
2022-08-25T07:14:36.265Z,6.90
2022-08-25T07:17:04.057Z,6.30
2022-08-25T07:19:41.164Z,6.43
2022-08-25T07:22:09.516Z,7.00
2022-08-25T07:24:37.189Z,7.20
2022-08-25T07:27:05.226Z,7.57
2022-08-25T07:29:33.892Z,6.60
2022-08-25T07:32:01.954Z,7.27
2022-08-25T07:34:52.288Z,7.17
2022-08-25T07:40:10.716Z,6.87
2022-08-25T07:42:38.359Z,6.43
2022-08-25T07:45:07.309Z,6.83
2022-08-25T07:47:35.021Z,6.83
2022-08-25T07:50:02.811Z,6.53
2022-08-25T07:52:34.803Z,7.43
2022-08-25T07:55:03.104Z,7.53
2022-08-25T07:57:30.788Z,7.20
2022-08-25T07:59:59.980Z,8.03
2022-08-25T08:02:27.646Z,8.73
2022-08-25T08:04:55.222Z,7.70
2022-08-25T08:07:24.051Z,7.47
2022-08-25T08:10:42.403Z,7.77
2022-08-25T08:13:00.412Z,7.63
2022-08-25T08:15:29.932Z,7.77
2022-08-25T08:17:58.097Z,7.93
2022-08-25T08:20:27.058Z,8.10
2022-08-25T08:22:54.711Z,7.57
2022-08-25T08:25:27.283Z,7.17
2022-08-25T08:27:55.517Z,6.07
2022-08-25T08:30:23.783Z,6.30
2022-08-25T08:33:09.070Z,7.13
2022-08-25T08:35:37.551Z,8.10
2022-08-25T08:38:13.566Z,8.10
2022-08-25T08:41:08.068Z,7.37
2022-08-25T08:43:37.233Z,8.00
2022-08-25T08:46:08.379Z,8.07
2022-08-25T08:48:41.491Z,6.87
2022-08-25T08:51:16.130Z,6.37
2022-08-25T08:53:47.062Z,6.53
2022-08-25T08:56:17.362Z,7.07
2022-08-25T08:58:50.074Z,6.77
2022-08-25T09:01:20.056Z,6.40
2022-08-25T09:03:55.220Z,7.00
2022-08-25T09:06:25.776Z,6.17
2022-08-25T09:08:55.471Z,5.97
2022-08-25T09:11:30.932Z,7.97
2022-08-25T09:14:04.939Z,5.60
2022-08-25T09:16:55.997Z,5.67
2022-08-25T09:19:32.540Z,5.27
2022-08-25T09:22:35.724Z,5.77
2022-08-25T09:24:58.081Z,5.67
2022-08-25T09:27:31.782Z,5.13
2022-08-25T09:30:01.578Z,6.40
2022-08-25T09:32:35.492Z,5.97
2022-08-25T09:35:03.781Z,5.80
2022-08-25T09:37:31.555Z,5.10
2022-08-25T09:39:59.941Z,5.47
2022-08-25T09:42:42.423Z,5.20
2022-08-25T09:45:14.560Z,5.83
2022-08-25T09:47:44.451Z,5.30
2022-08-25T09:50:18.478Z,5.00
2022-08-25T09:52:46.486Z,4.83
2022-08-25T09:55:25.727Z,4.50
2022-08-25T09:57:55.030Z,4.50
2022-08-25T10:00:25.153Z,4.88
2022-08-25T10:03:05.632Z,5.13
2022-08-25T10:05:35.489Z,4.57
2022-08-25T10:08:05.304Z,5.33
2022-08-25T10:10:33.628Z,5.03
2022-08-25T10:13:03.530Z,5.10
2022-08-25T10:15:36.644Z,5.05
2022-08-25T10:18:25.746Z,4.97
2022-08-25T10:21:07.681Z,4.90
2022-08-25T10:23:37.440Z,4.90
2022-08-25T10:26:09.484Z,4.63
2022-08-25T10:28:43.582Z,4.80
2022-08-25T10:31:16.698Z,4.97
2022-08-25T10:33:51.303Z,5.27
2022-08-25T10:36:21.319Z,5.17
2022-08-25T10:38:52.829Z,4.17
2022-08-25T10:41:35.994Z,4.87
2022-08-25T10:44:28.439Z,4.17
2022-08-25T10:47:03.167Z,4.50
2022-08-25T10:49:34.402Z,5.55
2022-08-25T10:52:03.092Z,5.07
2022-08-25T10:54:36.060Z,5.00
2022-08-25T10:57:10.261Z,5.13
2022-08-25T10:59:47.253Z,4.78
2022-08-25T11:02:33.304Z,5.00
2022-08-25T11:05:03.972Z,5.00
2022-08-25T11:07:35.076Z,4.57
2022-08-25T11:10:05.783Z,3.80
2022-08-25T11:12:35.596Z,4.32
2022-08-25T11:15:04.971Z,4.00
2022-08-25T11:17:40.757Z,4.38
2022-08-25T11:20:19.437Z,4.15
2022-08-25T11:22:56.168Z,4.32
2022-08-25T11:25:27.208Z,4.03
2022-08-25T11:27:56.289Z,3.58
2022-08-25T11:30:24.081Z,3.95
2022-08-25T11:32:54.675Z,4.50
2022-08-25T11:35:29.014Z,3.92
2022-08-25T11:38:16.802Z,4.28
2022-08-25T11:40:50.485Z,3.83
2022-08-25T11:43:29.963Z,4.20
2022-08-25T11:46:12.646Z,3.80
2022-08-25T11:48:42.492Z,4.13
2022-08-25T11:51:12.695Z,4.10
2022-08-25T11:53:42.278Z,3.85
2022-08-25T11:56:12.468Z,4.07
2022-08-25T11:58:41.528Z,4.20
2022-08-25T12:01:10.966Z,3.85
2022-08-25T12:03:51.992Z,3.85
2022-08-25T12:06:23.235Z,4.18
2022-08-25T12:08:52.840Z,3.97
2022-08-25T12:11:45.875Z,5.82
2022-08-25T12:14:17.164Z,4.60
2022-08-25T12:17:00.325Z,4.35
2022-08-25T12:19:48.043Z,3.58
2022-08-25T12:22:35.521Z,3.80
2022-08-25T12:25:09.743Z,4.15
2022-08-25T12:27:40.106Z,4.13
2022-08-25T12:30:18.636Z,4.50
2022-08-25T12:32:57.584Z,4.60
2022-08-25T12:35:38.294Z,3.80
2022-08-25T12:38:08.930Z,4.20
2022-08-25T12:40:39.890Z,3.65
2022-08-25T12:43:09.648Z,3.53
2022-08-25T12:45:44.833Z,4.07
2022-08-25T12:48:31.611Z,3.20
2022-08-25T12:51:01.432Z,3.42
2022-08-25T12:53:34.772Z,3.83
2022-08-25T12:56:06.318Z,3.50
2022-08-25T12:58:56.545Z,3.35
2022-08-25T13:01:35.457Z,3.42
2022-08-25T13:04:19.208Z,3.65
2022-08-25T13:06:53.812Z,4.00
2022-08-25T13:09:49.243Z,3.40
2022-08-25T13:12:20.057Z,3.58
2022-08-25T13:14:53.434Z,3.90
2022-08-25T13:17:26.091Z,3.80
2022-08-25T13:19:53.688Z,3.55
2022-08-25T13:22:21.739Z,3.47
2022-08-25T13:24:51.172Z,3.50
2022-08-25T13:27:22.902Z,3.20
2022-08-25T13:29:51.734Z,3.33
2022-08-25T13:32:26.407Z,3.22
2022-08-25T13:35:09.372Z,3.40
2022-08-25T13:37:36.967Z,3.30
2022-08-25T13:40:10.195Z,3.25
2022-08-25T13:42:42.808Z,3.20
2022-08-25T13:45:14.903Z,3.30
2022-08-25T13:47:45.611Z,3.45
2022-08-25T13:50:18.552Z,4.78
2022-08-25T13:52:49.375Z,4.63
2022-08-25T13:55:27.344Z,3.00
2022-08-25T13:57:57.346Z,3.17
2022-08-25T14:00:31.612Z,3.00
2022-08-25T14:03:00.557Z,3.22
2022-08-25T14:05:37.157Z,3.13
2022-08-25T14:08:16.180Z,3.20
2022-08-25T14:11:03.067Z,3.38
2022-08-25T14:13:34.893Z,2.63
2022-08-25T14:16:10.355Z,3.08
2022-08-25T14:18:38.848Z,2.95
2022-08-25T14:21:10.790Z,3.42
2022-08-25T14:23:39.533Z,2.85
2022-08-25T14:26:07.361Z,2.97
2022-08-25T14:28:36.900Z,2.80
2022-08-25T14:31:08.225Z,2.95
2022-08-25T14:33:38.392Z,2.90
2022-08-25T14:36:06.760Z,3.13
2022-08-25T14:38:35.151Z,2.40
2022-08-25T14:41:02.800Z,2.60
2022-08-25T14:43:31.939Z,3.03
2022-08-25T14:46:02.603Z,2.60
2022-08-25T14:48:32.543Z,2.50
2022-08-25T14:51:00.919Z,2.17
2022-08-25T14:53:28.816Z,2.47
2022-08-25T14:55:59.085Z,2.33
2022-08-25T14:58:27.343Z,2.28
2022-08-25T15:00:55.188Z,2.30
2022-08-25T15:03:28.917Z,2.47
2022-08-25T15:05:57.056Z,2.60
2022-08-25T15:08:42.157Z,2.30
2022-08-25T15:11:09.723Z,2.30
2022-08-25T15:13:38.479Z,2.50
2022-08-25T15:16:09.621Z,2.90
2022-08-25T15:18:38.951Z,2.20
2022-08-25T15:21:06.780Z,2.33
2022-08-25T15:23:35.421Z,2.50
2022-08-25T15:26:05.319Z,2.08
2022-08-25T15:28:32.995Z,2.40
2022-08-25T15:31:00.572Z,2.58
2022-08-25T15:33:28.326Z,2.50
2022-08-25T15:35:57.283Z,2.15
2022-08-25T15:38:25.872Z,2.30
2022-08-25T15:40:54.086Z,2.50
2022-08-25T15:43:21.859Z,2.38
2022-08-25T15:45:50.999Z,2.45
2022-08-25T15:48:19.213Z,2.22
2022-08-25T15:50:47.463Z,2.42
2022-08-25T15:53:16.433Z,2.67
2022-08-25T15:55:44.572Z,2.45
2022-08-25T15:58:12.604Z,2.70
2022-08-25T16:00:41.245Z,2.40
2022-08-25T16:03:09.538Z,2.50
2022-08-25T16:05:37.516Z,2.30
2022-08-25T16:08:05.858Z,2.28
2022-08-25T16:10:39.251Z,2.28
2022-08-25T16:13:08.693Z,2.42
2022-08-25T16:15:36.572Z,2.17
2022-08-25T16:18:05.135Z,2.13
2022-08-25T16:20:33.608Z,2.30
2022-08-25T16:23:02.814Z,2.83
2022-08-25T16:25:32.157Z,2.50
2022-08-25T16:28:01.672Z,3.03
2022-08-25T16:30:29.248Z,2.40
2022-08-25T16:32:56.855Z,2.72
2022-08-25T16:35:24.758Z,2.58
2022-08-25T16:37:52.347Z,2.80
2022-08-25T16:40:23.313Z,2.55
2022-08-25T16:42:50.969Z,2.90
2022-08-25T16:45:19.972Z,2.80
2022-08-25T16:47:47.870Z,3.38
2022-08-25T16:50:15.907Z,2.67
2022-08-25T16:53:00.825Z,3.30
2022-08-25T16:55:38.960Z,2.90
2022-08-25T16:58:07.896Z,4.80
2022-08-25T17:00:37.865Z,2.92
2022-08-25T17:03:05.916Z,2.88
2022-08-25T17:05:34.531Z,2.90
2022-08-25T17:08:19.391Z,2.75
2022-08-25T17:10:47.015Z,3.03
2022-08-25T17:13:14.933Z,3.15
2022-08-25T17:15:45.816Z,3.35
2022-08-25T17:18:13.971Z,2.95
2022-08-25T17:20:42.158Z,2.92
2022-08-25T17:23:12.379Z,3.10
2022-08-25T17:25:43.018Z,3.17
2022-08-25T17:28:12.037Z,3.25
2022-08-25T17:30:39.984Z,3.47
2022-08-25T17:33:09.002Z,3.20
2022-08-25T17:35:39.154Z,3.10
2022-08-25T17:38:06.959Z,2.90
2022-08-25T17:40:36.245Z,3.33
2022-08-25T17:43:04.148Z,3.22
2022-08-25T17:45:37.219Z,3.13
2022-08-25T17:48:06.874Z,2.83
2022-08-25T17:50:36.606Z,2.97
2022-08-25T17:53:04.400Z,2.92
2022-08-25T17:55:32.094Z,4.40
2022-08-25T17:57:59.835Z,3.80
2022-08-25T18:00:27.393Z,3.08
2022-08-25T18:02:54.961Z,3.53
2022-08-25T18:05:22.696Z,3.33
2022-08-25T18:07:51.643Z,3.30
2022-08-25T18:10:19.226Z,3.05
2022-08-25T18:12:46.940Z,3.40
2022-08-25T18:15:14.725Z,3.47
2022-08-25T18:17:42.636Z,4.00
2022-08-25T18:20:14.557Z,3.83
2022-08-25T18:22:44.111Z,3.80
2022-08-25T18:25:14.380Z,4.07
2022-08-25T18:27:42.005Z,4.05
2022-08-25T18:30:10.042Z,3.95
2022-08-25T18:32:37.932Z,3.88
2022-08-25T18:35:06.133Z,4.50
2022-08-25T18:37:51.324Z,4.65
2022-08-25T18:40:27.035Z,4.90
2022-08-25T18:42:55.842Z,4.30
2022-08-25T18:45:24.607Z,4.53
2022-08-25T18:47:56.144Z,4.38
2022-08-25T18:50:24.663Z,4.35
2022-08-25T18:52:52.284Z,4.80
2022-08-25T18:55:24.678Z,4.32
2022-08-25T18:57:52.592Z,4.68
2022-08-25T19:00:21.655Z,4.32
2022-08-25T19:02:49.990Z,4.38
2022-08-25T19:05:18.447Z,4.53
2022-08-25T19:07:46.019Z,4.43
2022-08-25T19:10:20.215Z,4.53
2022-08-25T19:12:54.924Z,4.82
2022-08-25T19:15:24.980Z,4.90
2022-08-25T19:17:53.035Z,5.00
2022-08-25T19:20:21.327Z,4.53
2022-08-25T19:22:49.260Z,4.68
2022-08-25T19:25:17.028Z,4.60
2022-08-25T19:27:44.899Z,4.35
2022-08-25T19:30:14.758Z,4.72
2022-08-25T19:32:43.776Z,5.15
2022-08-25T19:35:14.044Z,4.68
2022-08-25T19:37:41.795Z,4.82
2022-08-25T19:40:10.067Z,4.88
2022-08-25T19:42:38.902Z,5.20
2022-08-25T19:45:09.942Z,4.50
2022-08-25T19:47:39.863Z,4.72
2022-08-25T19:50:07.738Z,4.75
2022-08-25T19:52:35.432Z,5.50
2022-08-25T19:55:03.581Z,4.70
2022-08-25T19:57:42.876Z,5.25
2022-08-25T20:00:12.872Z,5.53
2022-08-25T20:02:42.945Z,5.47
2022-08-25T20:05:11.073Z,4.72
2022-08-25T20:07:39.087Z,5.55
2022-08-25T20:10:07.936Z,5.68
2022-08-25T20:12:35.508Z,5.22
2022-08-25T20:15:03.155Z,5.82
2022-08-25T20:17:31.226Z,5.28
2022-08-25T20:20:01.255Z,5.35
2022-08-25T20:22:30.465Z,5.50
2022-08-25T20:24:58.463Z,5.57
2022-08-25T20:27:27.855Z,6.22
2022-08-25T20:29:55.582Z,5.53
2022-08-25T20:32:24.206Z,5.80
2022-08-25T20:34:53.612Z,6.00
2022-08-25T20:37:25.686Z,6.17
2022-08-25T20:39:53.533Z,6.40
2022-08-25T20:42:21.170Z,6.50
2022-08-25T20:44:48.765Z,7.37
2022-08-25T20:47:20.437Z,6.40
2022-08-25T20:49:49.301Z,7.38
2022-08-25T20:52:18.431Z,6.90
2022-08-25T20:54:50.356Z,6.60
2022-08-25T20:57:19.050Z,6.63
2022-08-25T20:59:53.558Z,6.70
2022-08-25T21:02:21.555Z,6.97
2022-08-25T21:04:50.196Z,7.17
2022-08-25T21:07:18.321Z,6.20
2022-08-25T21:09:47.318Z,6.30
2022-08-25T21:12:15.014Z,6.50
2022-08-25T21:14:43.675Z,7.57
2022-08-25T21:17:12.744Z,6.60
2022-08-25T21:19:40.596Z,6.53
2022-08-25T21:22:09.523Z,5.83
2022-08-25T21:24:38.932Z,6.47
2022-08-25T21:27:08.295Z,6.17
2022-08-25T21:29:36.212Z,6.57
2022-08-25T21:32:04.099Z,6.57
2022-08-25T21:34:31.856Z,6.30
2022-08-25T21:37:00.243Z,6.37
2022-08-25T21:39:29.584Z,6.17
2022-08-25T21:42:00.063Z,6.57
2022-08-25T21:44:29.368Z,6.43
2022-08-25T21:46:57.090Z,6.83
2022-08-25T21:49:25.219Z,7.03
2022-08-25T21:52:02.377Z,7.33
2022-08-25T21:54:32.491Z,6.40
2022-08-25T21:57:02.098Z,6.87
2022-08-25T21:59:32.160Z,6.87
2022-08-25T22:02:00.663Z,6.53
2022-08-25T22:04:28.843Z,6.73
2022-08-25T22:06:57.206Z,6.40
2022-08-25T22:09:28.125Z,6.70
2022-08-25T22:11:56.004Z,6.10
2022-08-25T22:14:26.042Z,6.27
2022-08-25T22:16:55.688Z,6.40
2022-08-25T22:19:23.683Z,6.57
2022-08-25T22:21:53.100Z,7.07
2022-08-25T22:24:21.139Z,6.60
2022-08-25T22:26:49.198Z,6.50
2022-08-25T22:29:23.202Z,7.03
2022-08-25T22:31:53.367Z,7.20
2022-08-25T22:34:30.196Z,6.93
2022-08-25T22:37:00.089Z,7.47
2022-08-25T22:39:28.212Z,7.13
2022-08-25T22:41:55.787Z,6.90
2022-08-25T22:44:23.546Z,7.17
2022-08-25T22:46:51.109Z,6.83
2022-08-25T22:49:18.684Z,7.27
2022-08-25T22:51:47.636Z,6.57
2022-08-25T22:54:16.538Z,6.93
2022-08-25T22:56:44.162Z,7.07
2022-08-25T22:59:12.430Z,7.30
2022-08-25T23:01:40.324Z,7.20
2022-08-25T23:04:08.776Z,7.13
2022-08-25T23:06:38.732Z,6.73
2022-08-25T23:09:08.714Z,6.87
2022-08-25T23:11:38.549Z,7.13
2022-08-25T23:14:08.147Z,7.10
2022-08-25T23:16:35.866Z,7.60
2022-08-25T23:19:03.493Z,7.63
2022-08-25T23:21:50.260Z,6.83
2022-08-25T23:24:29.490Z,7.07
2022-08-25T23:26:58.278Z,6.47
2022-08-25T23:29:25.884Z,7.00
2022-08-25T23:31:53.644Z,7.03
2022-08-25T23:34:21.426Z,6.30
2022-08-25T23:36:49.002Z,6.63
2022-08-25T23:39:16.775Z,6.53
2022-08-25T23:41:45.908Z,5.97
2022-08-25T23:44:17.571Z,6.30
2022-08-25T23:46:47.162Z,6.57
2022-08-25T23:49:18.526Z,6.40
2022-08-25T23:51:47.358Z,5.97
2022-08-25T23:54:16.010Z,6.33
2022-08-25T23:56:51.373Z,6.73
2022-08-25T23:59:24.047Z,6.53
